RPC233 WAMM-RPVM
Flight info
| Callsign | RPC233 |
|---|---|
| Flight time | N/A |
| Altitude | 20000 |
| Route | PEDNO R342 GSA W6 LUMVI B473 FORTA W21 BOLOB BOLOB3P |
| Aircraft | C414/L-SBDFGRY/S |
Departure
| Time | 2026-04-13 04:01 |
|---|---|
| Airport | Sam Ratulangi International Airport (WAMM) |
Arrival
| Time | N/A |
|---|---|
| Airport | Mactan Cebu International Airport (RPVM) |
| Time | Latitude | Longitude | Altitude | Speed | Heading |
|---|---|---|---|---|---|
| 2026-04-13 03:45 | 1.54508 | 124.92339 | 331 ft | 0 kts | 272° |
| 2026-04-13 03:56 | 1.54508 | 124.92338 | 331 ft | 0 kts | 267° |
| 2026-04-13 03:56 | 1.54506 | 124.92335 | 331 ft | 0 kts | 227° |
| 2026-04-13 03:57 | 1.54505 | 124.92334 | 331 ft | 0 kts | 196° |
| 2026-04-13 03:57 | 1.54502 | 124.92334 | 331 ft | 2 kts | 169° |
| 2026-04-13 03:57 | 1.54485 | 124.92361 | 331 ft | 8 kts | 114° |
| 2026-04-13 03:57 | 1.54465 | 124.92423 | 331 ft | 9 kts | 107° |
| 2026-04-13 03:58 | 1.54441 | 124.92449 | 330 ft | 2 kts | 166° |
| 2026-04-13 03:58 | 1.54430 | 124.92449 | 330 ft | 4 kts | 189° |
| 2026-04-13 03:58 | 1.54387 | 124.92428 | 330 ft | 9 kts | 210° |
| 2026-04-13 03:58 | 1.54305 | 124.92417 | 331 ft | 15 kts | 182° |
| 2026-04-13 03:59 | 1.54190 | 124.92414 | 330 ft | 14 kts | 182° |
| 2026-04-13 03:59 | 1.54137 | 124.92461 | 331 ft | 13 kts | 87° |
| 2026-04-13 03:59 | 1.54136 | 124.92515 | 331 ft | 6 kts | 94° |
| 2026-04-13 03:59 | 1.54134 | 124.92584 | 331 ft | 11 kts | 90° |
| 2026-04-13 04:00 | 1.54141 | 124.92605 | 331 ft | 0 kts | 0° |
| 2026-04-13 04:00 | 1.54319 | 124.92611 | 332 ft | 55 kts | 1° |
| 2026-04-13 04:00 | 1.54869 | 124.92627 | 359 ft | 99 kts | 0° |
| 2026-04-13 04:01 | 1.55629 | 124.92635 | 561 ft | 116 kts | 360° |
| 2026-04-13 04:01 | 1.56459 | 124.92630 | 885 ft | 122 kts | 359° |
| 2026-04-13 04:01 | 1.57296 | 124.92472 | 1267 ft | 126 kts | 330° |
| 2026-04-13 04:01 | 1.58041 | 124.92025 | 1675 ft | 123 kts | 340° |
| 2026-04-13 04:02 | 1.58889 | 124.91835 | 2098 ft | 129 kts | 348° |
| 2026-04-13 04:02 | 1.59768 | 124.91650 | 2432 ft | 129 kts | 346° |
| 2026-04-13 04:02 | 1.60641 | 124.91475 | 2800 ft | 127 kts | 346° |
| 2026-04-13 04:02 | 1.61501 | 124.91304 | 3207 ft | 125 kts | 347° |
| 2026-04-13 04:03 | 1.62361 | 124.91133 | 3544 ft | 127 kts | 345° |
| 2026-04-13 04:03 | 1.63230 | 124.90955 | 3989 ft | 128 kts | 345° |
| 2026-04-13 04:03 | 1.64107 | 124.90788 | 4371 ft | 128 kts | 345° |
| 2026-04-13 04:03 | 1.64984 | 124.90615 | 4753 ft | 129 kts | 345° |
| 2026-04-13 04:04 | 1.65864 | 124.90444 | 5084 ft | 130 kts | 345° |
| 2026-04-13 04:04 | 1.66752 | 124.90267 | 5415 ft | 130 kts | 344° |
| 2026-04-13 04:04 | 1.67662 | 124.90264 | 5727 ft | 136 kts | 15° |
| 2026-04-13 04:04 | 1.68517 | 124.90694 | 6059 ft | 138 kts | 22° |
| 2026-04-13 04:05 | 1.69382 | 124.91110 | 6374 ft | 138 kts | 21° |
| 2026-04-13 04:05 | 1.70248 | 124.91538 | 6685 ft | 140 kts | 22° |
| 2026-04-13 04:05 | 1.71118 | 124.91971 | 6997 ft | 140 kts | 21° |
| 2026-04-13 04:05 | 1.71993 | 124.92407 | 7300 ft | 140 kts | 22° |
| 2026-04-13 04:06 | 1.72870 | 124.92843 | 7598 ft | 142 kts | 22° |
| 2026-04-13 04:06 | 1.73752 | 124.93281 | 7896 ft | 142 kts | 21° |
| 2026-04-13 04:06 | 1.74643 | 124.93724 | 8184 ft | 143 kts | 21° |
| 2026-04-13 04:06 | 1.75536 | 124.94167 | 8478 ft | 144 kts | 21° |
| 2026-04-13 04:07 | 1.76432 | 124.94612 | 8774 ft | 145 kts | 21° |
| 2026-04-13 04:07 | 1.77331 | 124.95058 | 9055 ft | 145 kts | 21° |
| 2026-04-13 04:07 | 1.78236 | 124.95507 | 9337 ft | 145 kts | 21° |
| 2026-04-13 04:07 | 1.79143 | 124.95960 | 9614 ft | 146 kts | 21° |
| 2026-04-13 04:08 | 1.80052 | 124.96413 | 9898 ft | 146 kts | 21° |
| 2026-04-13 04:08 | 1.80967 | 124.96865 | 10167 ft | 147 kts | 21° |
| 2026-04-13 04:08 | 1.81884 | 124.97322 | 10447 ft | 147 kts | 21° |
| 2026-04-13 04:08 | 1.82804 | 124.97778 | 10719 ft | 148 kts | 20° |
| 2026-04-13 04:09 | 1.83726 | 124.98236 | 10987 ft | 148 kts | 20° |
| 2026-04-13 04:09 | 1.84652 | 124.98695 | 11249 ft | 149 kts | 21° |
| 2026-04-13 04:09 | 1.85581 | 124.99157 | 11509 ft | 149 kts | 20° |
| 2026-04-13 04:09 | 1.86514 | 124.99621 | 11767 ft | 150 kts | 20° |
| 2026-04-13 04:10 | 1.87445 | 125.00083 | 12023 ft | 150 kts | 20° |
| 2026-04-13 04:10 | 1.88382 | 125.00550 | 12276 ft | 151 kts | 20° |
| 2026-04-13 04:10 | 1.89271 | 125.01099 | 12511 ft | 155 kts | 34° |
| 2026-04-13 04:10 | 1.90107 | 125.01781 | 12757 ft | 155 kts | 33° |
| 2026-04-13 04:11 | 1.90951 | 125.02450 | 12998 ft | 156 kts | 33° |
| 2026-04-13 04:11 | 1.91801 | 125.03123 | 13240 ft | 156 kts | 33° |
| 2026-04-13 04:11 | 1.92653 | 125.03795 | 13478 ft | 156 kts | 33° |
| 2026-04-13 04:11 | 1.93507 | 125.04472 | 13715 ft | 157 kts | 34° |
| 2026-04-13 04:12 | 1.94372 | 125.05159 | 13945 ft | 157 kts | 34° |
| 2026-04-13 04:12 | 1.95230 | 125.05837 | 14175 ft | 157 kts | 34° |
| 2026-04-13 04:12 | 1.96078 | 125.06508 | 14393 ft | 158 kts | 34° |
| 2026-04-13 04:12 | 1.96949 | 125.07197 | 14615 ft | 158 kts | 34° |
| 2026-04-13 04:13 | 1.97803 | 125.07872 | 14832 ft | 158 kts | 34° |
| 2026-04-13 04:13 | 1.98667 | 125.08556 | 15044 ft | 159 kts | 35° |
| 2026-04-13 04:13 | 1.99533 | 125.09242 | 15256 ft | 159 kts | 35° |
| 2026-04-13 04:13 | 2.00401 | 125.09930 | 15470 ft | 160 kts | 35° |
| 2026-04-13 04:14 | 2.01307 | 125.10551 | 15684 ft | 157 kts | 18° |
| 2026-04-13 04:14 | 2.02361 | 125.10722 | 15889 ft | 153 kts | 358° |
| 2026-04-13 04:14 | 2.03429 | 125.10754 | 16089 ft | 154 kts | 360° |
| 2026-04-13 04:14 | 2.04500 | 125.10792 | 16285 ft | 154 kts | 360° |
| 2026-04-13 04:15 | 2.05573 | 125.10826 | 16470 ft | 155 kts | 360° |
| 2026-04-13 04:15 | 2.06654 | 125.10860 | 16657 ft | 156 kts | 360° |
| 2026-04-13 04:15 | 2.07737 | 125.10894 | 16847 ft | 156 kts | 360° |
| 2026-04-13 04:15 | 2.08824 | 125.10929 | 17027 ft | 157 kts | 0° |
| 2026-04-13 04:16 | 2.09911 | 125.10963 | 17207 ft | 157 kts | 0° |
| 2026-04-13 04:16 | 2.11006 | 125.10997 | 17387 ft | 157 kts | 0° |
| 2026-04-13 04:16 | 2.12099 | 125.11032 | 17563 ft | 157 kts | 0° |
| 2026-04-13 04:16 | 2.13197 | 125.11067 | 17728 ft | 158 kts | 1° |
| 2026-04-13 04:17 | 2.14299 | 125.11101 | 17895 ft | 159 kts | 1° |
| 2026-04-13 04:17 | 2.15404 | 125.11137 | 18057 ft | 159 kts | 1° |
| 2026-04-13 04:17 | 2.16512 | 125.11172 | 18213 ft | 159 kts | 1° |
| 2026-04-13 04:17 | 2.17623 | 125.11207 | 18366 ft | 160 kts | 1° |
| 2026-04-13 04:18 | 2.18734 | 125.11242 | 18517 ft | 160 kts | 1° |
| 2026-04-13 04:18 | 2.19849 | 125.11277 | 18664 ft | 161 kts | 1° |
| 2026-04-13 04:18 | 2.20966 | 125.11313 | 18804 ft | 161 kts | 1° |
| 2026-04-13 04:18 | 2.22087 | 125.11348 | 18941 ft | 161 kts | 1° |
| 2026-04-13 04:19 | 2.23208 | 125.11384 | 19077 ft | 162 kts | 1° |
| 2026-04-13 04:19 | 2.24331 | 125.11420 | 19209 ft | 162 kts | 1° |
| 2026-04-13 04:19 | 2.25460 | 125.11455 | 19338 ft | 162 kts | 1° |
| 2026-04-13 04:19 | 2.26590 | 125.11491 | 19463 ft | 163 kts | 1° |
| 2026-04-13 04:20 | 2.27714 | 125.11527 | 19597 ft | 162 kts | 1° |
| 2026-04-13 04:20 | 2.28841 | 125.11562 | 19716 ft | 162 kts | 2° |
| 2026-04-13 04:20 | 2.29971 | 125.11599 | 19834 ft | 163 kts | 2° |
| 2026-04-13 04:20 | 2.31088 | 125.11633 | 19945 ft | 163 kts | 2° |
| 2026-04-13 04:21 | 2.32231 | 125.11670 | 19987 ft | 168 kts | 2° |
| 2026-04-13 04:21 | 2.33416 | 125.11708 | 19996 ft | 171 kts | 2° |
| 2026-04-13 04:21 | 2.34608 | 125.11746 | 19997 ft | 172 kts | 2° |
| 2026-04-13 04:21 | 2.35805 | 125.11784 | 19998 ft | 173 kts | 2° |
| 2026-04-13 04:22 | 2.37017 | 125.11822 | 20000 ft | 176 kts | 2° |
| 2026-04-13 04:22 | 2.38253 | 125.11861 | 19997 ft | 179 kts | 2° |
| 2026-04-13 04:22 | 2.39514 | 125.11900 | 19999 ft | 184 kts | 2° |
| 2026-04-13 04:22 | 2.40807 | 125.11941 | 20001 ft | 188 kts | 2° |
| 2026-04-13 04:23 | 2.42126 | 125.11983 | 19999 ft | 192 kts | 2° |
| 2026-04-13 04:23 | 2.43476 | 125.12025 | 19997 ft | 197 kts | 2° |
| 2026-04-13 04:23 | 2.44857 | 125.12070 | 19998 ft | 200 kts | 2° |
| 2026-04-13 04:23 | 2.46259 | 125.12115 | 20000 ft | 203 kts | 2° |
| 2026-04-13 04:24 | 2.47677 | 125.12159 | 19997 ft | 205 kts | 2° |
| 2026-04-13 04:24 | 2.49107 | 125.12205 | 19999 ft | 206 kts | 2° |
| 2026-04-13 04:24 | 2.50546 | 125.12250 | 19999 ft | 208 kts | 2° |
| 2026-04-13 04:24 | 2.51993 | 125.12296 | 19998 ft | 208 kts | 2° |
| 2026-04-13 04:25 | 2.53440 | 125.12342 | 19997 ft | 209 kts | 2° |
| 2026-04-13 04:25 | 2.54893 | 125.12388 | 19998 ft | 209 kts | 2° |
| 2026-04-13 04:25 | 2.56345 | 125.12434 | 19999 ft | 209 kts | 2° |
| 2026-04-13 04:25 | 2.57795 | 125.12480 | 19998 ft | 209 kts | 2° |
| 2026-04-13 04:26 | 2.59246 | 125.12526 | 19995 ft | 209 kts | 2° |
| 2026-04-13 04:26 | 2.60698 | 125.12571 | 19993 ft | 209 kts | 2° |
| 2026-04-13 04:26 | 2.62150 | 125.12617 | 19986 ft | 209 kts | 2° |
| 2026-04-13 04:26 | 2.63583 | 125.12663 | 19986 ft | 209 kts | 2° |
| 2026-04-13 04:27 | 2.65030 | 125.12709 | 19986 ft | 209 kts | 2° |
| 2026-04-13 04:27 | 2.66483 | 125.12755 | 19986 ft | 209 kts | 2° |
| 2026-04-13 04:27 | 2.67931 | 125.12801 | 19986 ft | 208 kts | 2° |
| 2026-04-13 04:27 | 2.69382 | 125.12847 | 19986 ft | 208 kts | 2° |
| 2026-04-13 04:28 | 2.70829 | 125.12893 | 19986 ft | 208 kts | 2° |
| 2026-04-13 04:28 | 2.72279 | 125.12939 | 19986 ft | 208 kts | 2° |
| 2026-04-13 04:28 | 2.73726 | 125.12984 | 19987 ft | 208 kts | 2° |
| 2026-04-13 04:28 | 2.75171 | 125.13030 | 19990 ft | 208 kts | 2° |
| 2026-04-13 04:29 | 2.76619 | 125.13075 | 19984 ft | 208 kts | 2° |
| 2026-04-13 04:29 | 2.78066 | 125.13121 | 19982 ft | 208 kts | 2° |
| 2026-04-13 04:29 | 2.79513 | 125.13167 | 19982 ft | 208 kts | 2° |
| 2026-04-13 04:29 | 2.80962 | 125.13213 | 19981 ft | 208 kts | 2° |
| 2026-04-13 04:30 | 2.82407 | 125.13259 | 19980 ft | 208 kts | 2° |
| 2026-04-13 04:30 | 2.83857 | 125.13305 | 19980 ft | 209 kts | 2° |
| 2026-04-13 04:30 | 2.85306 | 125.13351 | 19980 ft | 208 kts | 2° |
| 2026-04-13 04:30 | 2.86755 | 125.13396 | 19980 ft | 208 kts | 2° |
| 2026-04-13 04:31 | 2.88202 | 125.13441 | 19981 ft | 208 kts | 2° |
| 2026-04-13 04:31 | 2.89649 | 125.13488 | 19981 ft | 208 kts | 2° |
| 2026-04-13 04:31 | 2.91094 | 125.13534 | 19986 ft | 208 kts | 2° |
| 2026-04-13 04:31 | 2.92539 | 125.13579 | 19988 ft | 208 kts | 2° |
| 2026-04-13 04:32 | 2.93980 | 125.13625 | 19985 ft | 208 kts | 2° |
| 2026-04-13 04:32 | 2.95426 | 125.13670 | 19983 ft | 208 kts | 2° |
| 2026-04-13 04:32 | 2.96870 | 125.13717 | 19982 ft | 207 kts | 2° |
| 2026-04-13 04:32 | 2.98311 | 125.13762 | 19981 ft | 207 kts | 2° |
| 2026-04-13 04:33 | 2.99752 | 125.13808 | 19980 ft | 207 kts | 2° |
| 2026-04-13 04:33 | 3.01189 | 125.13852 | 19980 ft | 207 kts | 2° |
| 2026-04-13 04:33 | 3.02630 | 125.13899 | 19981 ft | 207 kts | 2° |
| 2026-04-13 04:33 | 3.04070 | 125.13945 | 19981 ft | 207 kts | 2° |
| 2026-04-13 04:34 | 3.05503 | 125.13990 | 19980 ft | 207 kts | 2° |
| 2026-04-13 04:34 | 3.06941 | 125.14034 | 19980 ft | 206 kts | 2° |
| 2026-04-13 04:34 | 3.08378 | 125.14080 | 19985 ft | 207 kts | 2° |
| 2026-04-13 04:34 | 3.09815 | 125.14125 | 19988 ft | 206 kts | 2° |
| 2026-04-13 04:35 | 3.11253 | 125.14171 | 19984 ft | 207 kts | 2° |
| 2026-04-13 04:35 | 3.12691 | 125.14217 | 19982 ft | 207 kts | 2° |
| 2026-04-13 04:35 | 3.14125 | 125.14334 | 19980 ft | 206 kts | 13° |
| 2026-04-13 04:35 | 3.15516 | 125.14682 | 19979 ft | 206 kts | 14° |
| 2026-04-13 04:36 | 3.16908 | 125.15017 | 19977 ft | 206 kts | 14° |
| 2026-04-13 04:36 | 3.18302 | 125.15350 | 19976 ft | 206 kts | 14° |
| 2026-04-13 04:36 | 3.19696 | 125.15684 | 19979 ft | 206 kts | 14° |
| 2026-04-13 04:36 | 3.21086 | 125.16019 | 19981 ft | 205 kts | 14° |
| 2026-04-13 04:37 | 3.22471 | 125.16352 | 19977 ft | 205 kts | 14° |
| 2026-04-13 04:37 | 3.23864 | 125.16686 | 19974 ft | 206 kts | 14° |
| 2026-04-13 04:37 | 3.25237 | 125.17017 | 19979 ft | 206 kts | 14° |
| 2026-04-13 04:37 | 3.26628 | 125.17351 | 19978 ft | 206 kts | 14° |
| 2026-04-13 04:38 | 3.28019 | 125.17685 | 19976 ft | 206 kts | 14° |
| 2026-04-13 04:38 | 3.29412 | 125.18020 | 19973 ft | 206 kts | 14° |
| 2026-04-13 04:38 | 3.30803 | 125.18354 | 19971 ft | 206 kts | 14° |
| 2026-04-13 04:38 | 3.32196 | 125.18689 | 19970 ft | 206 kts | 14° |
| 2026-04-13 04:39 | 3.33584 | 125.19022 | 19970 ft | 206 kts | 14° |
| 2026-04-13 04:39 | 3.34977 | 125.19356 | 19971 ft | 206 kts | 14° |
| 2026-04-13 04:39 | 3.36366 | 125.19691 | 19972 ft | 205 kts | 14° |
| 2026-04-13 04:39 | 3.37755 | 125.20025 | 19972 ft | 205 kts | 14° |
| 2026-04-13 04:40 | 3.39139 | 125.20358 | 19971 ft | 205 kts | 14° |
| 2026-04-13 04:40 | 3.40529 | 125.20691 | 19971 ft | 205 kts | 14° |
| 2026-04-13 04:40 | 3.41916 | 125.21025 | 19971 ft | 205 kts | 14° |
| 2026-04-13 04:40 | 3.43307 | 125.21360 | 19959 ft | 206 kts | 14° |
| 2026-04-13 04:41 | 3.44223 | 125.21580 | 19959 ft | 205 kts | 14° |
| 2026-04-13 04:41 | 3.45610 | 125.21914 | 19959 ft | 205 kts | 14° |
| 2026-04-13 04:41 | 3.46999 | 125.22247 | 19958 ft | 205 kts | 14° |
| 2026-04-13 04:41 | 3.48385 | 125.22580 | 19958 ft | 205 kts | 14° |
| 2026-04-13 04:42 | 3.49770 | 125.22914 | 19958 ft | 205 kts | 14° |
| 2026-04-13 04:42 | 3.51156 | 125.23247 | 19958 ft | 205 kts | 14° |
| 2026-04-13 04:42 | 3.52540 | 125.23580 | 19958 ft | 204 kts | 14° |
| 2026-04-13 04:43 | 3.56694 | 125.24578 | 19958 ft | 205 kts | 14° |
| 2026-04-13 04:43 | 3.58081 | 125.24913 | 19958 ft | 205 kts | 14° |
| 2026-04-13 04:43 | 3.59468 | 125.25246 | 19959 ft | 205 kts | 14° |
| 2026-04-13 04:44 | 3.60850 | 125.25578 | 19959 ft | 205 kts | 14° |
| 2026-04-13 04:44 | 3.62240 | 125.25913 | 19949 ft | 206 kts | 14° |
| 2026-04-13 04:44 | 3.63630 | 125.26247 | 19949 ft | 205 kts | 14° |
| 2026-04-13 04:44 | 3.65019 | 125.26581 | 19949 ft | 205 kts | 14° |
| 2026-04-13 04:45 | 3.66403 | 125.26914 | 19949 ft | 205 kts | 14° |
| 2026-04-13 04:45 | 3.67790 | 125.27247 | 19949 ft | 205 kts | 14° |
| 2026-04-13 04:45 | 3.69176 | 125.27581 | 19949 ft | 205 kts | 14° |
| 2026-04-13 04:45 | 3.70560 | 125.27915 | 19949 ft | 205 kts | 14° |
| 2026-04-13 04:46 | 3.71947 | 125.28247 | 19949 ft | 205 kts | 14° |
| 2026-04-13 04:46 | 3.73330 | 125.28580 | 19949 ft | 205 kts | 14° |
| 2026-04-13 04:46 | 3.74715 | 125.28914 | 19949 ft | 205 kts | 14° |
| 2026-04-13 04:46 | 3.76098 | 125.29247 | 19950 ft | 204 kts | 14° |
| 2026-04-13 04:47 | 3.77479 | 125.29579 | 19950 ft | 204 kts | 14° |
| 2026-04-13 04:47 | 3.78861 | 125.29911 | 19950 ft | 205 kts | 14° |
| 2026-04-13 04:47 | 3.80245 | 125.30245 | 19950 ft | 204 kts | 14° |
| 2026-04-13 04:47 | 3.81609 | 125.30572 | 19951 ft | 204 kts | 14° |
| 2026-04-13 04:48 | 3.82988 | 125.30904 | 19950 ft | 204 kts | 14° |
| 2026-04-13 04:48 | 3.84368 | 125.31236 | 19950 ft | 204 kts | 14° |
| 2026-04-13 04:48 | 3.85748 | 125.31568 | 19950 ft | 204 kts | 14° |
| 2026-04-13 04:48 | 3.87128 | 125.31901 | 19949 ft | 204 kts | 14° |
| 2026-04-13 04:49 | 3.88505 | 125.32233 | 19950 ft | 204 kts | 14° |
| 2026-04-13 04:49 | 3.89887 | 125.32564 | 19950 ft | 204 kts | 14° |
| 2026-04-13 04:49 | 3.91269 | 125.32897 | 19950 ft | 204 kts | 14° |
| 2026-04-13 04:49 | 3.92648 | 125.33229 | 19950 ft | 204 kts | 14° |
| 2026-04-13 04:50 | 3.94028 | 125.33562 | 19950 ft | 204 kts | 14° |
| 2026-04-13 04:50 | 3.95407 | 125.33894 | 19950 ft | 204 kts | 14° |
| 2026-04-13 04:50 | 3.96787 | 125.34225 | 19951 ft | 204 kts | 14° |
| 2026-04-13 04:50 | 3.98161 | 125.34557 | 19951 ft | 204 kts | 14° |
| 2026-04-13 04:51 | 3.99540 | 125.34883 | 19950 ft | 203 kts | 12° |
| 2026-04-13 04:51 | 4.00947 | 125.34887 | 19948 ft | 204 kts | 354° |
| 2026-04-13 04:51 | 4.02349 | 125.34700 | 19950 ft | 203 kts | 355° |
| 2026-04-13 04:51 | 4.03753 | 125.34533 | 19951 ft | 203 kts | 355° |
| 2026-04-13 04:52 | 4.05148 | 125.34360 | 19951 ft | 203 kts | 355° |
| 2026-04-13 04:52 | 4.06550 | 125.34184 | 19951 ft | 203 kts | 355° |
| 2026-04-13 04:52 | 4.07949 | 125.34010 | 19951 ft | 203 kts | 355° |
| 2026-04-13 04:52 | 4.09348 | 125.33835 | 19951 ft | 203 kts | 355° |
| 2026-04-13 04:53 | 4.10745 | 125.33661 | 19951 ft | 203 kts | 355° |